createdAt,value
2022-08-02T00:00:55.562Z,61.18774414
2022-08-02T00:01:54.729Z,61.18774414
2022-08-02T00:02:55.474Z,61.28540039
2022-08-02T00:03:56.284Z,61.18774414
2022-08-02T00:04:57.026Z,61.18774414
2022-08-02T00:05:57.687Z,61.28540039
2022-08-02T00:06:58.467Z,61.28540039
2022-08-02T00:07:59.290Z,61.78588867
2022-08-02T00:09:00.799Z,61.68823242
2022-08-02T00:10:02.400Z,61.58447266
2022-08-02T00:11:03.149Z,61.58447266
2022-08-02T00:12:04.868Z,61.58447266
2022-08-02T00:13:05.662Z,61.68823242
2022-08-02T00:14:06.433Z,61.68823242
2022-08-02T00:15:07.254Z,61.68823242
2022-08-02T00:16:08.832Z,61.58447266
2022-08-02T00:17:09.665Z,61.58447266
2022-08-02T00:18:10.534Z,61.68823242
2022-08-02T00:19:12.253Z,61.68823242
2022-08-02T00:20:12.986Z,61.98730469
2022-08-02T00:21:14.201Z,62.01171875
2022-08-02T00:22:15.397Z,62.11547852
2022-08-02T00:23:15.881Z,62.41455078
2022-08-02T00:24:29.031Z,62.51220703
2022-08-02T00:25:17.441Z,62.51220703
2022-08-02T00:26:18.075Z,62.60986328
2022-08-02T00:27:18.902Z,62.60986328
2022-08-02T00:28:26.859Z,62.51220703
2022-08-02T00:29:53.291Z,62.3840332
2022-08-02T00:30:52.837Z,62.3840332
2022-08-02T00:31:53.606Z,62.78076172
2022-08-02T00:32:54.414Z,62.58544922
2022-08-02T00:34:26.164Z,62.3840332
2022-08-02T00:34:56.110Z,62.18261719
2022-08-02T00:35:57.366Z,62.68310547
2022-08-02T00:36:58.221Z,62.08496094
2022-08-02T00:37:58.920Z,61.98730469
2022-08-02T00:39:00.262Z,61.98730469
2022-08-02T00:40:01.853Z,62.18261719
2022-08-02T00:41:02.609Z,62.28637695
2022-08-02T00:42:03.352Z,62.28637695
2022-08-02T00:43:04.158Z,62.18261719
2022-08-02T00:44:04.946Z,61.98730469
2022-08-02T00:45:05.666Z,61.68823242
2022-08-02T00:46:06.389Z,61.58447266
2022-08-02T00:47:07.073Z,61.38916016
2022-08-02T00:48:07.869Z,61.18774414
2022-08-02T00:49:09.441Z,61.18774414
2022-08-02T00:50:10.094Z,61.18774414
2022-08-02T00:51:11.722Z,61.28540039
2022-08-02T00:52:13.016Z,61.48681641
2022-08-02T00:53:13.302Z,61.38916016
2022-08-02T00:54:14.104Z,61.48681641
2022-08-02T00:55:17.477Z,61.38916016
2022-08-02T00:56:16.259Z,61.48681641
2022-08-02T00:57:17.046Z,61.58447266
2022-08-02T00:58:17.885Z,61.68823242
2022-08-02T00:59:19.405Z,61.78588867
2022-08-02T01:00:50.541Z,61.68823242
2022-08-02T01:01:55.839Z,61.88354492
2022-08-02T01:02:52.023Z,61.88354492
2022-08-02T01:03:53.768Z,61.88354492
2022-08-02T01:04:54.587Z,61.98730469
2022-08-02T01:06:02.361Z,61.88354492
2022-08-02T01:06:56.721Z,61.88354492
2022-08-02T01:07:57.472Z,61.78588867
2022-08-02T01:08:58.917Z,61.78588867
2022-08-02T01:09:59.707Z,61.88354492
2022-08-02T01:11:00.427Z,62.08496094
2022-08-02T01:12:07.329Z,62.28637695
2022-08-02T01:13:01.906Z,62.41455078
2022-08-02T01:14:02.724Z,62.51220703
2022-08-02T01:15:03.528Z,62.71362305
2022-08-02T01:16:04.309Z,62.41455078
2022-08-02T01:17:05.059Z,62.60986328
2022-08-02T01:18:05.789Z,62.8112793
2022-08-02T01:19:07.384Z,62.71362305
2022-08-02T01:20:08.213Z,62.51220703
2022-08-02T01:21:09.012Z,62.41455078
2022-08-02T01:22:10.072Z,62.41455078
2022-08-02T01:23:11.508Z,62.41455078
2022-08-02T01:24:12.370Z,62.51220703
2022-08-02T01:25:13.201Z,62.51220703
2022-08-02T01:26:13.989Z,62.41455078
2022-08-02T01:27:14.689Z,62.41455078
2022-08-02T01:28:15.406Z,62.51220703
2022-08-02T01:29:16.897Z,62.51220703
2022-08-02T01:30:17.794Z,62.60986328
2022-08-02T01:31:18.588Z,62.60986328
2022-08-02T01:32:49.961Z,62.8112793
2022-08-02T01:33:51.365Z,62.8112793
2022-08-02T01:34:52.140Z,62.8112793
2022-08-02T01:35:52.956Z,62.71362305
2022-08-02T01:36:54.273Z,62.8112793
2022-08-02T01:37:55.110Z,62.71362305
2022-08-02T01:38:55.668Z,62.90893555
2022-08-02T01:39:57.292Z,63.01269531
2022-08-02T01:40:58.086Z,63.11035156
2022-08-02T01:41:59.209Z,63.11035156
2022-08-02T01:42:59.670Z,63.01269531
2022-08-02T01:44:00.313Z,63.01269531
2022-08-02T01:45:01.047Z,62.90893555
2022-08-02T01:46:01.839Z,63.01269531
2022-08-02T01:47:02.684Z,63.01269531
2022-08-02T01:48:03.488Z,63.11035156
2022-08-02T01:49:06.841Z,63.20800781
2022-08-02T01:50:06.958Z,63.20800781
2022-08-02T01:51:07.793Z,63.31176758
2022-08-02T01:52:09.060Z,63.20800781
2022-08-02T01:53:09.476Z,63.20800781
2022-08-02T01:54:10.696Z,63.20800781
2022-08-02T01:55:18.550Z,63.11035156
2022-08-02T01:56:12.506Z,63.11035156
2022-08-02T01:57:13.376Z,63.20800781
2022-08-02T01:58:14.212Z,63.50708008
2022-08-02T01:59:15.859Z,63.50708008
2022-08-02T02:00:16.556Z,63.61083984
2022-08-02T02:01:18.560Z,63.81225586
2022-08-02T02:02:18.212Z,63.81225586
2022-08-02T02:03:49.601Z,63.61083984
2022-08-02T02:04:50.268Z,63.50708008
2022-08-02T02:05:51.020Z,63.40942383
2022-08-02T02:06:52.838Z,63.50708008
2022-08-02T02:07:53.674Z,63.70849609
2022-08-02T02:08:54.525Z,63.90991211
2022-08-02T02:09:55.712Z,64.20898438
2022-08-02T02:10:56.491Z,63.90991211
2022-08-02T02:12:09.456Z,64.11132813
2022-08-02T02:12:58.107Z,64.20898438
2022-08-02T02:13:58.866Z,64.30664063
2022-08-02T02:14:59.530Z,64.50805664
2022-08-02T02:16:00.879Z,64.60571289
2022-08-02T02:17:01.709Z,64.93530273
2022-08-02T02:18:12.729Z,64.93530273
2022-08-02T02:19:03.371Z,64.73999023
2022-08-02T02:20:04.705Z,64.93530273
2022-08-02T02:21:05.389Z,65.234375
2022-08-02T02:22:06.871Z,64.93530273
2022-08-02T02:23:08.058Z,65.13671875
2022-08-02T02:24:11.751Z,65.43579102
2022-08-02T02:25:11.458Z,65.234375
2022-08-02T02:26:09.826Z,64.83764648
2022-08-02T02:27:10.560Z,64.73999023
2022-08-02T02:28:11.595Z,64.63623047
2022-08-02T02:29:12.452Z,64.73999023
2022-08-02T02:30:13.756Z,65.0390625
2022-08-02T02:31:14.484Z,65.0390625
2022-08-02T02:32:15.309Z,65.13671875
2022-08-02T02:33:16.101Z,65.0390625
2022-08-02T02:34:16.943Z,64.83764648
2022-08-02T02:35:17.667Z,65.26489258
2022-08-02T02:36:49.709Z,65.16723633
2022-08-02T02:37:50.498Z,65.46630859
2022-08-02T02:38:51.476Z,65.56396484
2022-08-02T02:39:52.836Z,65.76538086
2022-08-02T02:40:54.401Z,65.96679688
2022-08-02T02:41:55.088Z,65.96679688
2022-08-02T02:42:55.871Z,65.96679688
2022-08-02T02:43:56.665Z,65.76538086
2022-08-02T02:44:57.506Z,65.66772461
2022-08-02T02:45:58.853Z,65.56396484
2022-08-02T02:46:59.549Z,65.66772461
2022-08-02T02:48:00.312Z,65.56396484
2022-08-02T02:49:01.224Z,65.66772461
2022-08-02T02:50:02.935Z,65.76538086
2022-08-02T02:51:03.679Z,65.66772461
2022-08-02T02:52:04.375Z,65.56396484
2022-08-02T02:53:05.062Z,65.66772461
2022-08-02T02:54:31.070Z,65.66772461
2022-08-02T02:55:07.618Z,65.76538086
2022-08-02T02:56:08.383Z,65.76538086
2022-08-02T02:57:09.076Z,65.76538086
2022-08-02T02:58:09.828Z,65.76538086
2022-08-02T02:59:10.631Z,65.56396484
2022-08-02T03:00:12.374Z,65.66772461
2022-08-02T03:01:13.218Z,65.66772461
2022-08-02T03:02:14.252Z,66.06445313
2022-08-02T03:03:14.560Z,66.36352539
2022-08-02T03:04:15.337Z,66.66259766
2022-08-02T03:05:16.204Z,66.76635742
2022-08-02T03:06:16.982Z,66.99829102
2022-08-02T03:07:49.374Z,67.09594727
2022-08-02T03:08:50.144Z,67.29736328
2022-08-02T03:09:53.788Z,67.49267578
2022-08-02T03:10:52.784Z,67.79785156
2022-08-02T03:11:54.404Z,67.79785156
2022-08-02T03:12:55.235Z,67.99316406
2022-08-02T03:13:55.966Z,68.09692383
2022-08-02T03:14:56.759Z,67.99316406
2022-08-02T03:15:57.606Z,68.12744141
2022-08-02T03:16:58.370Z,68.22509766
2022-08-02T03:17:59.085Z,68.32885742
2022-08-02T03:18:59.761Z,68.32885742
2022-08-02T03:20:01.411Z,68.32885742
2022-08-02T03:21:02.249Z,68.42651367
2022-08-02T03:22:03.021Z,68.32885742
2022-08-02T03:23:03.879Z,68.22509766
2022-08-02T03:24:04.722Z,68.09692383
2022-08-02T03:25:05.460Z,68.22509766
2022-08-02T03:26:06.255Z,68.32885742
2022-08-02T03:27:07.022Z,68.22509766
2022-08-02T03:28:07.736Z,68.22509766
2022-08-02T03:29:10.014Z,68.19458008
2022-08-02T03:30:09.932Z,68.19458008
2022-08-02T03:31:10.807Z,68.09692383
2022-08-02T03:32:11.888Z,68.09692383
2022-08-02T03:33:12.491Z,68.09692383
2022-08-02T03:34:13.305Z,68.19458008
2022-08-02T03:35:13.999Z,68.19458008
2022-08-02T03:36:14.748Z,68.19458008
2022-08-02T03:37:16.227Z,68.42651367
2022-08-02T03:38:16.931Z,68.72558594
2022-08-02T03:39:51.870Z,68.72558594
2022-08-02T03:40:50.805Z,68.82324219
2022-08-02T03:41:52.478Z,68.92700195
2022-08-02T03:42:53.247Z,69.0246582
2022-08-02T03:43:54.060Z,68.92700195
2022-08-02T03:44:54.892Z,68.72558594
2022-08-02T03:45:55.724Z,68.82324219
2022-08-02T03:46:56.639Z,68.72558594
2022-08-02T03:47:58.765Z,68.82324219
2022-08-02T03:48:58.254Z,68.95751953
2022-08-02T03:49:59.894Z,68.95751953
2022-08-02T03:51:00.606Z,69.0612793
2022-08-02T03:52:01.435Z,69.2565918
2022-08-02T03:53:02.228Z,69.36035156
2022-08-02T03:54:03.775Z,69.36035156
2022-08-02T03:55:05.255Z,69.2565918
2022-08-02T03:56:06.940Z,69.2565918
2022-08-02T03:57:09.613Z,69.36035156
2022-08-02T03:58:08.557Z,69.2565918
2022-08-02T03:59:09.247Z,69.12841797
2022-08-02T04:00:10.898Z,69.22607422
2022-08-02T04:01:11.841Z,69.12841797
2022-08-02T04:02:12.853Z,69.12841797
2022-08-02T04:03:13.240Z,69.12841797
2022-08-02T04:04:14.079Z,69.12841797
2022-08-02T04:05:14.874Z,69.0246582
2022-08-02T04:06:15.858Z,68.92700195
2022-08-02T04:07:18.547Z,68.72558594
2022-08-02T04:08:48.617Z,68.62792969
2022-08-02T04:09:49.356Z,68.62792969
2022-08-02T04:10:50.743Z,68.62792969
2022-08-02T04:11:51.514Z,68.82324219
2022-08-02T04:12:52.945Z,68.95751953
2022-08-02T04:13:56.896Z,69.15893555
2022-08-02T04:14:54.386Z,69.2565918
2022-08-02T04:15:55.129Z,69.36035156
2022-08-02T04:16:55.912Z,69.45800781
2022-08-02T04:17:56.780Z,69.2565918
2022-08-02T04:18:57.587Z,68.95751953
2022-08-02T04:19:58.385Z,68.85986328
2022-08-02T04:20:59.814Z,68.45703125
2022-08-02T04:22:00.631Z,68.359375
2022-08-02T04:23:02.491Z,68.359375
2022-08-02T04:24:03.264Z,68.65844727
2022-08-02T04:25:04.154Z,68.65844727
2022-08-02T04:26:04.753Z,68.76220703
2022-08-02T04:27:19.229Z,68.76220703
2022-08-02T04:28:17.732Z,68.65844727
2022-08-02T04:29:07.041Z,68.76220703
2022-08-02T04:30:08.430Z,68.65844727
2022-08-02T04:31:09.176Z,68.76220703
2022-08-02T04:32:10.272Z,68.85986328
2022-08-02T04:33:11.654Z,68.85986328
2022-08-02T04:34:15.191Z,68.95751953
2022-08-02T04:35:20.883Z,69.15893555
2022-08-02T04:36:13.975Z,69.56176758
2022-08-02T04:37:14.717Z,69.75708008
2022-08-02T04:38:15.464Z,69.56176758
2022-08-02T04:39:16.142Z,69.45800781
2022-08-02T04:40:48.361Z,69.65942383
2022-08-02T04:41:49.000Z,69.62280273
2022-08-02T04:42:49.761Z,69.7265625
2022-08-02T04:43:51.373Z,69.7265625
2022-08-02T04:44:52.150Z,69.62280273
2022-08-02T04:45:52.867Z,69.62280273
2022-08-02T04:46:53.633Z,69.52514648
2022-08-02T04:48:55.319Z,69.62280273
2022-08-02T04:49:56.193Z,69.42749023
2022-08-02T04:50:57.739Z,69.32373047
2022-08-02T04:51:58.441Z,69.32373047
2022-08-02T04:52:59.262Z,68.92700195
2022-08-02T04:54:06.170Z,68.62792969
2022-08-02T04:55:01.780Z,68.42651367
2022-08-02T04:56:02.515Z,68.42651367
2022-08-02T04:57:03.256Z,68.52416992
2022-08-02T04:58:13.592Z,68.56079102
2022-08-02T04:59:04.825Z,68.65844727
2022-08-02T05:00:05.608Z,68.76220703
2022-08-02T05:01:07.454Z,68.85986328
2022-08-02T05:02:08.318Z,69.0612793
2022-08-02T05:03:08.854Z,69.0612793
2022-08-02T05:04:09.722Z,69.0612793
2022-08-02T05:05:10.496Z,69.15893555
2022-08-02T05:06:19.508Z,69.15893555
2022-08-02T05:07:12.276Z,69.0612793
2022-08-02T05:08:13.016Z,69.0612793
2022-08-02T05:09:13.844Z,68.95751953
2022-08-02T05:10:15.550Z,69.0246582
2022-08-02T05:11:55.037Z,68.92700195
2022-08-02T05:12:48.377Z,68.72558594
2022-08-02T05:13:58.734Z,68.82324219
2022-08-02T05:14:50.001Z,69.0246582
2022-08-02T05:15:50.763Z,68.82324219
2022-08-02T05:16:51.510Z,68.62792969
2022-08-02T05:17:52.926Z,68.52416992
2022-08-02T05:18:53.662Z,68.52416992
2022-08-02T05:19:54.554Z,68.42651367
2022-08-02T05:20:58.261Z,68.32885742
2022-08-02T05:21:56.705Z,68.22509766
2022-08-02T05:22:57.488Z,68.09692383
2022-08-02T05:23:58.290Z,67.79785156
2022-08-02T05:24:59.123Z,67.59643555
2022-08-02T05:25:59.932Z,67.6940918
2022-08-02T05:27:00.701Z,67.59643555
2022-08-02T05:28:01.455Z,67.19360352
2022-08-02T05:29:02.216Z,66.59545898
2022-08-02T05:30:03.061Z,65.99731445
2022-08-02T05:31:04.369Z,65.99731445
2022-08-02T05:32:05.102Z,66.29638672
2022-08-02T05:33:05.816Z,66.19873047
2022-08-02T05:34:11.355Z,66.29638672
2022-08-02T05:35:07.472Z,66.69921875
2022-08-02T05:36:08.237Z,66.89453125
2022-08-02T05:37:09.766Z,66.796875
2022-08-02T05:38:10.364Z,66.796875
2022-08-02T05:39:12.323Z,66.99829102
2022-08-02T05:40:12.977Z,67.09594727
2022-08-02T05:41:13.958Z,67.29736328
2022-08-02T05:42:15.256Z,67.6940918
2022-08-02T05:43:46.761Z,67.49267578
2022-08-02T05:44:47.561Z,67.56591797
2022-08-02T05:45:48.975Z,67.56591797
2022-08-02T05:46:49.689Z,67.66357422
2022-08-02T05:47:50.395Z,67.56591797
2022-08-02T05:48:51.226Z,67.59643555
2022-08-02T05:49:52.972Z,67.66357422
2022-08-02T05:50:54.506Z,67.66357422
2022-08-02T05:51:55.187Z,67.76123047
2022-08-02T05:52:55.872Z,68.06030273
2022-08-02T05:53:56.896Z,68.06030273
2022-08-02T05:54:57.533Z,68.06030273
2022-08-02T05:55:58.358Z,68.06030273
2022-08-02T05:56:59.057Z,68.1640625
2022-08-02T05:57:59.753Z,68.26171875
2022-08-02T05:59:00.526Z,68.46313477
2022-08-02T06:00:02.924Z,68.56079102
2022-08-02T06:01:03.498Z,68.65844727
2022-08-02T06:02:04.261Z,68.56079102
2022-08-02T06:03:05.794Z,68.359375
2022-08-02T06:04:06.646Z,67.96264648
2022-08-02T06:05:07.503Z,68.1640625
2022-08-02T06:06:08.986Z,68.26171875
2022-08-02T06:07:09.675Z,67.96264648
2022-08-02T06:08:10.449Z,67.86499023
2022-08-02T06:09:11.530Z,67.4621582
2022-08-02T06:10:12.350Z,67.26074219
2022-08-02T06:11:13.911Z,67.06542969
2022-08-02T06:12:15.680Z,66.83349609
2022-08-02T06:13:46.654Z,66.72973633
2022-08-02T06:14:50.185Z,66.1315918
2022-08-02T06:15:53.377Z,66.53442383
2022-08-02T06:16:49.792Z,66.53442383
2022-08-02T06:17:50.540Z,66.33300781
2022-08-02T06:18:51.237Z,66.53442383
2022-08-02T06:19:52.712Z,66.63208008
2022-08-02T06:20:53.448Z,66.93115234
2022-08-02T06:21:54.276Z,66.83349609
2022-08-02T06:22:54.918Z,67.03491211
2022-08-02T06:23:57.615Z,67.33398438
2022-08-02T06:24:56.627Z,68.02978516
2022-08-02T06:25:57.955Z,68.19458008
2022-08-02T06:26:58.686Z,68.39599609
2022-08-02T06:27:59.390Z,67.89550781
2022-08-02T06:29:00.143Z,67.4987793
2022-08-02T06:30:00.979Z,66.90063477
2022-08-02T06:31:02.475Z,66.99829102
2022-08-02T06:32:03.219Z,67.19970703
2022-08-02T06:33:03.945Z,66.80297852
2022-08-02T06:34:04.796Z,66.90063477
2022-08-02T06:35:05.605Z,66.90063477
2022-08-02T06:36:06.408Z,66.90063477
2022-08-02T06:37:07.172Z,67.29736328
2022-08-02T06:38:08.469Z,66.80297852
2022-08-02T06:39:09.309Z,66.90063477
2022-08-02T06:40:10.113Z,66.80297852
2022-08-02T06:41:11.622Z,66.99829102
2022-08-02T06:42:12.728Z,66.80297852
2022-08-02T06:43:13.109Z,66.27197266
2022-08-02T06:44:45.537Z,66.16821289
2022-08-02T06:45:14.671Z,65.77148438
2022-08-02T06:47:11.134Z,66.07055664
2022-08-02T06:47:47.440Z,65.57006836
2022-08-02T06:48:48.155Z,65.80200195
2022-08-02T06:49:52.265Z,65.20385742
2022-08-02T06:50:50.496Z,65.40527344
2022-08-02T06:51:51.245Z,65.77148438
2022-08-02T06:52:52.805Z,65.7043457
2022-08-02T06:53:53.574Z,65.30761719
2022-08-02T06:54:54.409Z,64.87426758
2022-08-02T06:55:55.212Z,64.87426758
2022-08-02T06:56:55.973Z,64.97192383
2022-08-02T06:57:56.740Z,65.47241211
2022-08-02T06:58:57.522Z,65.57006836
2022-08-02T06:59:58.522Z,65.40527344
2022-08-02T07:00:59.226Z,65.80200195
2022-08-02T07:02:00.977Z,66.00341797
2022-08-02T07:03:01.598Z,66.30249023
2022-08-02T07:04:02.331Z,66.6015625
2022-08-02T07:05:03.118Z,66.10107422
2022-08-02T07:06:03.940Z,66.10107422
2022-08-02T07:07:04.686Z,65.90576172
2022-08-02T07:08:05.425Z,66.16821289
2022-08-02T07:09:20.896Z,66.36962891
2022-08-02T07:10:07.634Z,66.46728516
2022-08-02T07:11:08.985Z,66.46728516
2022-08-02T07:12:09.885Z,65.97290039
2022-08-02T07:13:10.459Z,65.57006836
2022-08-02T07:14:11.514Z,64.57519531
2022-08-02T07:15:12.267Z,64.07470703
2022-08-02T07:16:13.069Z,64.27612305
2022-08-02T07:17:14.461Z,64.1784668
2022-08-02T07:18:45.567Z,64.1784668
2022-08-02T07:19:46.382Z,64.44702148
2022-08-02T07:20:47.229Z,64.64233398
2022-08-02T07:21:57.824Z,64.44702148
2022-08-02T07:22:49.608Z,64.34326172
2022-08-02T07:23:50.369Z,64.24560547
2022-08-02T07:24:51.245Z,64.14794922
2022-08-02T07:26:02.695Z,64.04418945
2022-08-02T07:27:10.548Z,64.14794922
2022-08-02T07:27:53.635Z,64.04418945
2022-08-02T07:28:54.353Z,63.84887695
2022-08-02T07:29:55.199Z,64.24560547
2022-08-02T07:30:56.020Z,64.14794922
2022-08-02T07:31:57.403Z,63.54980469
2022-08-02T07:32:58.132Z,63.34838867
2022-08-02T07:33:58.830Z,63.34838867
2022-08-02T07:34:59.693Z,62.85400391
2022-08-02T07:36:01.629Z,62.85400391
2022-08-02T07:37:01.817Z,62.75024414
2022-08-02T07:38:02.710Z,63.15307617
2022-08-02T07:39:03.279Z,63.25073242
2022-08-02T07:40:07.589Z,62.95166016
2022-08-02T07:41:05.490Z,62.85400391
2022-08-02T07:42:07.005Z,63.12255859
2022-08-02T07:43:07.772Z,63.15307617
2022-08-02T07:44:08.496Z,63.01879883
2022-08-02T07:45:09.385Z,63.12255859
2022-08-02T07:46:10.173Z,63.01879883
2022-08-02T07:47:11.217Z,63.04931641
2022-08-02T07:48:11.795Z,63.12255859
2022-08-02T07:49:12.555Z,63.12255859
2022-08-02T07:50:13.937Z,63.22021484
2022-08-02T07:51:45.986Z,63.12255859
2022-08-02T07:52:46.768Z,62.52441406
2022-08-02T07:53:50.197Z,62.52441406
2022-08-02T07:54:48.192Z,62.52441406
2022-08-02T07:55:49.067Z,62.45117188
2022-08-02T07:56:50.869Z,62.65258789
2022-08-02T07:57:51.462Z,62.75024414
2022-08-02T07:58:51.895Z,62.85400391
2022-08-02T07:59:52.655Z,62.55493164
2022-08-02T08:00:53.541Z,62.75024414
2022-08-02T08:01:54.939Z,62.95166016
2022-08-02T08:02:58.797Z,62.35351563
2022-08-02T08:03:56.498Z,62.32299805
2022-08-02T08:04:57.354Z,62.71972656
2022-08-02T08:05:59.042Z,63.01879883
2022-08-02T08:06:59.867Z,63.12255859
2022-08-02T08:08:00.763Z,62.92114258
2022-08-02T08:09:01.495Z,62.71972656
2022-08-02T08:10:02.877Z,62.71972656
2022-08-02T08:11:04.512Z,62.92114258
2022-08-02T08:12:05.362Z,63.31787109
2022-08-02T08:13:07.046Z,63.31787109
2022-08-02T08:14:07.644Z,63.12255859
2022-08-02T08:15:08.362Z,63.12255859
2022-08-02T08:16:09.256Z,63.12255859
2022-08-02T08:17:10.095Z,63.22021484
2022-08-02T08:18:10.892Z,63.01879883
2022-08-02T08:19:11.693Z,63.01879883
2022-08-02T08:20:15.918Z,63.01879883
2022-08-02T08:21:14.302Z,62.92114258
2022-08-02T08:22:46.435Z,62.71972656
2022-08-02T08:23:47.208Z,62.92114258
2022-08-02T08:24:48.133Z,63.01879883
2022-08-02T08:25:48.811Z,62.71972656
2022-08-02T08:26:49.662Z,63.12255859
2022-08-02T08:27:50.449Z,62.92114258
2022-08-02T08:28:51.168Z,62.4206543
2022-08-02T08:29:51.933Z,62.39624023
2022-08-02T08:30:52.764Z,62.39624023
2022-08-02T08:31:54.515Z,62.39624023
2022-08-02T08:32:55.351Z,62.59155273
2022-08-02T08:33:56.054Z,62.49389648
2022-08-02T08:34:56.844Z,62.29248047
2022-08-02T08:35:58.428Z,62.19482422
2022-08-02T08:36:59.250Z,62.19482422
2022-08-02T08:38:04.177Z,62.29248047
2022-08-02T08:39:00.977Z,62.19482422
2022-08-02T08:40:01.834Z,62.19482422
2022-08-02T08:41:03.502Z,62.39624023
2022-08-02T08:42:05.085Z,62.39624023
2022-08-02T08:43:05.860Z,62.79296875
2022-08-02T08:44:06.582Z,62.890625
2022-08-02T08:45:07.561Z,62.56103516
2022-08-02T08:46:08.421Z,62.56103516
2022-08-02T08:47:11.367Z,62.76245117
2022-08-02T08:48:10.094Z,62.66479492
2022-08-02T08:49:10.871Z,62.06665039
2022-08-02T08:50:18.055Z,62.26196289
2022-08-02T08:51:13.406Z,61.56616211
2022-08-02T08:52:45.466Z,61.76757813
2022-08-02T08:53:46.971Z,61.86523438
2022-08-02T08:54:48.673Z,61.76757813
2022-08-02T08:55:48.534Z,61.26708984
2022-08-02T08:56:49.394Z,60.77270508
2022-08-02T08:57:50.917Z,61.07177734
2022-08-02T08:58:51.583Z,61.56616211
2022-08-02T08:59:52.302Z,62.03613281
2022-08-02T09:00:53.066Z,62.03613281
2022-08-02T09:01:54.533Z,61.6394043
2022-08-02T09:02:55.232Z,62.23144531
2022-08-02T09:03:55.930Z,62.03613281
2022-08-02T09:04:56.627Z,62.13378906
2022-08-02T09:05:57.322Z,62.03613281
2022-08-02T09:06:58.055Z,62.23144531
2022-08-02T09:07:58.796Z,62.33520508
2022-08-02T09:08:59.982Z,61.43798828
2022-08-02T09:10:00.708Z,61.73706055
2022-08-02T09:11:01.452Z,61.73706055
2022-08-02T09:12:02.974Z,61.93847656
2022-08-02T09:13:03.708Z,61.8347168
2022-08-02T09:14:04.493Z,61.73706055
2022-08-02T09:15:05.297Z,61.6394043
2022-08-02T09:16:12.105Z,61.8347168
2022-08-02T09:17:06.908Z,62.13378906
2022-08-02T09:18:07.713Z,61.90795898
2022-08-02T09:19:08.524Z,61.10839844
2022-08-02T09:20:10.021Z,61.51123047
2022-08-02T09:21:10.979Z,61.30981445
2022-08-02T09:22:12.789Z,61.51123047
2022-08-02T09:23:13.652Z,61.01074219
2022-08-02T09:24:44.668Z,61.01074219
2022-08-02T09:25:58.983Z,60.31494141
2022-08-02T09:26:46.078Z,61.01074219
2022-08-02T09:27:46.879Z,61.60888672
2022-08-02T09:28:47.666Z,61.90795898
2022-08-02T09:30:05.959Z,60.81542969
2022-08-02T09:30:49.086Z,61.01074219
2022-08-02T09:31:50.163Z,61.10839844
2022-08-02T09:32:51.315Z,61.70654297
2022-08-02T09:33:52.045Z,61.60888672
2022-08-02T09:34:52.784Z,62.07275391
2022-08-02T09:36:06.965Z,62.17651367
2022-08-02T09:36:54.906Z,62.57324219
2022-08-02T09:37:54.966Z,62.27416992
2022-08-02T09:38:55.762Z,62.07275391
2022-08-02T09:39:57.142Z,61.97509766
2022-08-02T09:40:57.276Z,61.57836914
2022-08-02T09:41:58.842Z,61.35253906
2022-08-02T09:42:59.531Z,61.35253906
2022-08-02T09:44:05.355Z,61.45019531
2022-08-02T09:45:01.749Z,60.95581055
2022-08-02T09:46:02.446Z,59.46655273
2022-08-02T09:47:03.147Z,58.66699219
2022-08-02T09:48:03.866Z,59.9609375
2022-08-02T09:49:04.696Z,59.86328125
2022-08-02T09:50:05.336Z,59.16748047
2022-08-02T09:51:06.062Z,59.75952148
2022-08-02T09:52:07.491Z,59.26513672
2022-08-02T09:53:08.233Z,57.67822266
2022-08-02T09:54:09.339Z,58.66699219
2022-08-02T09:55:09.670Z,58.66699219
2022-08-02T09:56:33.930Z,59.03930664
2022-08-02T09:57:11.829Z,58.44116211
2022-08-02T09:58:12.600Z,57.64770508
2022-08-02T09:59:43.794Z,58.24584961
2022-08-02T10:00:52.468Z,57.35473633
2022-08-02T10:01:51.070Z,56.65893555
2022-08-02T10:02:46.843Z,56.65893555
2022-08-02T10:03:47.578Z,56.7565918
2022-08-02T10:04:53.445Z,57.25097656
2022-08-02T10:05:54.099Z,56.35986328
2022-08-02T10:06:49.707Z,56.15844727
2022-08-02T10:07:50.457Z,56.15844727
2022-08-02T10:08:51.177Z,56.65893555
2022-08-02T10:09:51.916Z,56.7565918
2022-08-02T10:10:52.563Z,56.15844727
2022-08-02T10:11:53.990Z,55.96313477
2022-08-02T10:12:55.404Z,56.06079102
2022-08-02T10:13:56.157Z,56.35986328
2022-08-02T10:14:57.525Z,56.85424805
2022-08-02T10:15:58.202Z,55.26733398
2022-08-02T10:16:58.941Z,54.96826172
2022-08-02T10:17:59.736Z,55.56640625
2022-08-02T10:19:00.458Z,56.65893555
2022-08-02T10:20:04.482Z,56.7565918
2022-08-02T10:21:01.900Z,57.25097656
2022-08-02T10:22:02.628Z,56.45751953
2022-08-02T10:23:03.819Z,56.35986328
2022-08-02T10:24:04.544Z,56.45751953
2022-08-02T10:25:05.325Z,55.6640625
2022-08-02T10:26:06.013Z,56.15844727
2022-08-02T10:27:06.697Z,56.65893555
2022-08-02T10:28:07.400Z,57.15332031
2022-08-02T10:29:08.104Z,57.45239258
2022-08-02T10:30:08.924Z,57.02514648
2022-08-02T10:31:09.648Z,55.83496094
2022-08-02T10:32:10.566Z,55.34057617
2022-08-02T10:33:11.930Z,55.83496094
2022-08-02T10:34:43.334Z,56.53076172
2022-08-02T10:35:44.120Z,55.34057617
2022-08-02T10:36:44.861Z,54.54711914
2022-08-02T10:37:45.611Z,54.05273438
2022-08-02T10:38:46.865Z,54.74853516
2022-08-02T10:39:50.768Z,55.54199219
2022-08-02T10:40:48.430Z,55.63964844
2022-08-02T10:41:50.010Z,55.34057617
2022-08-02T10:42:51.499Z,54.74853516
2022-08-02T10:43:52.193Z,54.94384766
2022-08-02T10:44:52.897Z,54.35180664
2022-08-02T10:45:53.691Z,54.24804688
2022-08-02T10:46:54.423Z,54.44946289
2022-08-02T10:47:55.168Z,54.24804688
2022-08-02T10:48:55.951Z,54.24804688
2022-08-02T10:49:56.751Z,55.54199219
2022-08-02T10:50:57.464Z,54.35180664
2022-08-02T10:51:58.130Z,53.65600586
2022-08-02T10:52:59.893Z,53.85131836
2022-08-02T10:54:00.644Z,53.35693359
2022-08-02T10:55:01.353Z,54.05273438
2022-08-02T10:56:02.109Z,53.8269043
2022-08-02T10:57:02.836Z,54.52270508
2022-08-02T10:58:03.579Z,54.52270508
2022-08-02T10:59:04.303Z,53.72924805
2022-08-02T11:00:05.032Z,52.93579102
2022-08-02T11:01:05.920Z,52.93579102
2022-08-02T11:02:07.519Z,52.44140625
2022-08-02T11:03:08.209Z,52.44140625
2022-08-02T11:04:10.687Z,52.5390625
2022-08-02T11:05:10.210Z,52.734375
2022-08-02T11:06:25.793Z,53.52783203
2022-08-02T11:07:12.505Z,52.93579102
2022-08-02T11:08:43.524Z,52.63671875
2022-08-02T11:09:44.986Z,52.14233398
2022-08-02T11:10:45.725Z,52.23999023
2022-08-02T11:11:53.958Z,52.734375